createdAt,value
2023-03-16T00:01:12.565Z,6.53
2023-03-16T00:04:13.938Z,7.13
2023-03-16T00:07:15.553Z,7.50
2023-03-16T00:10:16.999Z,7.33
2023-03-16T00:13:23.643Z,7.50
2023-03-16T00:16:25.151Z,7.70
2023-03-16T00:19:26.635Z,7.43
2023-03-16T00:22:29.720Z,8.90
2023-03-16T00:25:33.451Z,8.00
2023-03-16T00:28:36.073Z,8.53
2023-03-16T00:31:39.802Z,9.53
2023-03-16T00:34:41.260Z,8.90
2023-03-16T00:37:43.529Z,8.57
2023-03-16T00:40:45.810Z,8.20
2023-03-16T00:43:48.769Z,8.73
2023-03-16T00:46:50.187Z,9.07
2023-03-16T00:49:51.614Z,9.70
2023-03-16T00:52:53.619Z,10.23
2023-03-16T00:55:55.167Z,8.87
2023-03-16T00:58:57.803Z,9.20
2023-03-16T01:01:59.324Z,8.93
2023-03-16T01:05:01.884Z,9.30
2023-03-16T01:08:04.215Z,9.90
2023-03-16T01:11:08.256Z,9.17
2023-03-16T01:14:10.105Z,9.27
2023-03-16T01:17:13.797Z,9.63
2023-03-16T01:20:19.237Z,10.10
2023-03-16T01:23:21.523Z,9.40
2023-03-16T01:26:25.123Z,10.00
2023-03-16T01:29:26.645Z,10.63
2023-03-16T01:32:30.496Z,10.20
2023-03-16T01:35:32.033Z,10.73
2023-03-16T01:38:33.851Z,10.50
2023-03-16T01:41:35.539Z,10.30
2023-03-16T01:45:01.589Z,9.77
2023-03-16T01:48:08.217Z,11.13
2023-03-16T01:51:15.786Z,11.23
2023-03-16T01:54:43.746Z,10.40
2023-03-16T01:57:46.907Z,10.40
2023-03-16T02:00:48.854Z,10.03
2023-03-16T02:04:01.607Z,10.43
2023-03-16T02:07:06.829Z,9.93
2023-03-16T02:10:10.527Z,10.83
2023-03-16T02:13:12.537Z,10.60
2023-03-16T02:16:19.290Z,10.10
2023-03-16T02:19:35.776Z,10.20
2023-03-16T02:22:46.636Z,9.73
2023-03-16T02:26:00.173Z,10.13
2023-03-16T02:29:41.715Z,9.83
2023-03-16T02:32:45.729Z,9.83
2023-03-16T02:35:47.293Z,10.20
2023-03-16T02:38:48.715Z,9.73
2023-03-16T02:41:52.429Z,9.20
2023-03-16T02:44:59.103Z,8.67
2023-03-16T02:48:09.475Z,8.93
2023-03-16T02:51:11.331Z,9.37
2023-03-16T02:54:13.142Z,9.07
2023-03-16T02:57:15.461Z,9.43
2023-03-16T03:00:18.983Z,9.00
2023-03-16T03:03:23.979Z,8.60
2023-03-16T03:06:25.465Z,9.20
2023-03-16T03:09:27.156Z,9.60
2023-03-16T03:12:29.055Z,8.67
2023-03-16T03:15:30.641Z,9.33
2023-03-16T03:18:40.150Z,9.07
2023-03-16T03:21:41.924Z,9.27
2023-03-16T03:24:43.691Z,8.03
2023-03-16T03:27:46.586Z,8.73
2023-03-16T03:30:51.475Z,8.73
2023-03-16T03:33:53.572Z,9.37
2023-03-16T03:36:56.354Z,8.80
2023-03-16T03:39:57.968Z,8.40
2023-03-16T03:43:01.350Z,8.23
2023-03-16T03:46:04.479Z,8.70
2023-03-16T03:49:08.410Z,8.17
2023-03-16T03:52:10.911Z,8.00
2023-03-16T03:55:12.766Z,8.73
2023-03-16T03:58:14.255Z,9.03
2023-03-16T04:01:15.917Z,9.80
2023-03-16T04:04:17.396Z,9.17
2023-03-16T04:07:18.828Z,9.40
2023-03-16T04:10:21.255Z,8.97
2023-03-16T04:13:22.798Z,9.60
2023-03-16T04:16:26.802Z,9.80
2023-03-16T04:19:29.558Z,9.13
2023-03-16T04:22:31.792Z,9.53
2023-03-16T04:25:33.262Z,9.20
2023-03-16T04:28:34.794Z,9.60
2023-03-16T04:31:37.017Z,9.27
2023-03-16T04:34:41.677Z,9.07
2023-03-16T04:37:44.069Z,9.87
2023-03-16T04:40:45.625Z,9.37
2023-03-16T04:43:52.080Z,9.40
2023-03-16T04:46:56.356Z,9.43
2023-03-16T04:50:02.599Z,10.20
2023-03-16T04:53:05.022Z,10.20
2023-03-16T04:56:08.098Z,9.67
2023-03-16T04:59:10.773Z,9.13
2023-03-16T05:02:21.192Z,9.77
2023-03-16T05:05:23.690Z,9.47
2023-03-16T05:08:25.285Z,9.87
2023-03-16T05:11:28.733Z,9.40
2023-03-16T05:14:35.951Z,9.53
2023-03-16T05:17:55.935Z,9.17
2023-03-16T05:20:57.381Z,9.33
2023-03-16T05:24:05.712Z,9.47
2023-03-16T05:27:07.238Z,9.50
2023-03-16T05:30:11.042Z,9.40
2023-03-16T05:33:13.154Z,8.90
2023-03-16T05:36:14.996Z,8.80
2023-03-16T05:39:19.740Z,9.37
2023-03-16T05:42:23.394Z,8.97
2023-03-16T05:45:31.403Z,8.97
2023-03-16T05:48:41.290Z,8.73
2023-03-16T05:51:44.616Z,9.03
2023-03-16T05:54:47.198Z,10.20
2023-03-16T05:57:49.528Z,8.97
2023-03-16T06:00:51.034Z,9.47
2023-03-16T06:04:00.471Z,9.90
2023-03-16T06:07:04.422Z,9.30
2023-03-16T06:10:07.222Z,9.60
2023-03-16T06:13:09.041Z,8.93
2023-03-16T06:16:13.735Z,9.63
2023-03-16T06:19:15.539Z,9.40
2023-03-16T06:22:18.446Z,9.73
2023-03-16T06:25:20.057Z,9.77
2023-03-16T06:28:23.057Z,8.50
2023-03-16T06:31:24.818Z,8.93
2023-03-16T06:34:26.430Z,9.47
2023-03-16T06:37:30.978Z,8.83
2023-03-16T06:40:37.099Z,9.00
2023-03-16T06:43:38.702Z,9.13
2023-03-16T06:46:40.260Z,9.83
2023-03-16T06:49:43.046Z,9.30
2023-03-16T06:52:51.588Z,9.27
2023-03-16T06:55:53.124Z,9.63
2023-03-16T06:58:54.792Z,9.90
2023-03-16T07:01:56.219Z,9.23
2023-03-16T07:04:57.672Z,9.37
2023-03-16T07:07:59.148Z,10.40
2023-03-16T07:11:01.331Z,10.07
2023-03-16T07:14:02.767Z,10.37
2023-03-16T07:17:06.574Z,9.80
2023-03-16T07:20:10.834Z,9.17
2023-03-16T07:23:13.687Z,9.30
2023-03-16T07:26:16.472Z,9.67
2023-03-16T07:29:25.766Z,9.27
2023-03-16T07:32:27.424Z,9.60
2023-03-16T07:35:29.458Z,9.53
2023-03-16T07:38:32.807Z,9.43
2023-03-16T07:41:34.525Z,9.23
2023-03-16T07:45:04.432Z,8.67
2023-03-16T07:48:06.284Z,10.07
2023-03-16T07:51:23.847Z,9.23
2023-03-16T07:54:26.767Z,10.27
2023-03-16T07:57:28.230Z,9.67
2023-03-16T08:00:29.976Z,9.30
2023-03-16T08:03:32.108Z,9.20
2023-03-16T08:06:33.771Z,9.53
2023-03-16T08:09:36.610Z,9.27
2023-03-16T08:12:41.638Z,9.60
2023-03-16T08:15:47.282Z,9.13
2023-03-16T08:18:57.613Z,8.67
2023-03-16T08:22:02.065Z,8.90
2023-03-16T08:25:11.321Z,8.37
2023-03-16T08:28:16.994Z,9.33
2023-03-16T08:31:20.087Z,8.07
2023-03-16T08:34:30.146Z,8.20
2023-03-16T08:37:33.906Z,8.83
2023-03-16T08:40:36.044Z,8.53
2023-03-16T08:43:37.933Z,8.93
2023-03-16T08:46:40.701Z,9.40
2023-03-16T08:49:42.407Z,8.60
2023-03-16T08:52:50.809Z,8.40
2023-03-16T08:55:52.572Z,7.90
2023-03-16T08:58:54.254Z,8.17
2023-03-16T09:01:56.091Z,7.83
2023-03-16T09:04:57.547Z,8.00
2023-03-16T09:07:58.997Z,7.63
2023-03-16T09:11:10.396Z,8.13
2023-03-16T09:14:11.828Z,7.60
2023-03-16T09:17:13.252Z,7.60
2023-03-16T09:20:26.863Z,7.57
2023-03-16T09:23:32.444Z,7.80
2023-03-16T09:26:33.843Z,7.80
2023-03-16T09:29:36.450Z,7.80
2023-03-16T09:32:38.102Z,7.20
2023-03-16T09:35:39.659Z,7.70
2023-03-16T09:38:42.285Z,7.17
2023-03-16T09:41:53.912Z,7.57
2023-03-16T09:45:18.370Z,6.67
2023-03-16T09:48:21.488Z,6.97
2023-03-16T09:51:41.742Z,7.63
2023-03-16T09:54:52.510Z,7.63
2023-03-16T09:57:54.160Z,6.03
2023-03-16T10:01:09.982Z,6.73
2023-03-16T10:04:50.457Z,7.10
2023-03-16T10:08:08.982Z,6.53
2023-03-16T10:11:32.083Z,6.33
2023-03-16T10:15:04.549Z,6.40
2023-03-16T10:18:18.078Z,6.77
2023-03-16T10:21:21.139Z,6.00
2023-03-16T10:24:27.058Z,6.70
2023-03-16T10:27:34.868Z,6.10
2023-03-16T10:30:37.353Z,6.07
2023-03-16T10:33:39.513Z,6.50
2023-03-16T10:36:45.087Z,6.50
2023-03-16T10:39:48.876Z,6.80
2023-03-16T10:42:50.605Z,7.10
2023-03-16T10:45:52.196Z,6.80
2023-03-16T10:49:01.751Z,8.03
2023-03-16T10:52:13.876Z,6.30
2023-03-16T10:55:26.616Z,5.90
2023-03-16T10:58:35.579Z,6.33
2023-03-16T11:01:37.483Z,5.57
2023-03-16T11:04:38.908Z,5.70
2023-03-16T11:07:48.199Z,6.63
2023-03-16T11:10:59.247Z,6.40
2023-03-16T11:14:04.471Z,6.13
2023-03-16T11:17:18.978Z,6.50
2023-03-16T11:20:32.540Z,6.33
2023-03-16T11:23:38.897Z,6.90
2023-03-16T11:26:42.861Z,5.53
2023-03-16T11:29:58.570Z,6.13
2023-03-16T11:33:00.573Z,5.90
2023-03-16T11:36:27.784Z,6.00
2023-03-16T11:39:57.459Z,5.77
2023-03-16T11:43:05.895Z,6.57
2023-03-16T11:46:18.657Z,6.17
2023-03-16T11:49:45.751Z,5.93
2023-03-16T11:53:13.427Z,5.00
2023-03-16T11:56:28.742Z,5.43
2023-03-16T11:59:35.964Z,5.57
2023-03-16T12:02:49.689Z,5.17
2023-03-16T12:06:47.029Z,5.40
2023-03-16T12:10:02.075Z,5.00
2023-03-16T12:13:26.594Z,5.07
2023-03-16T12:16:48.382Z,5.07
2023-03-16T12:19:56.314Z,5.00
2023-03-16T12:23:12.544Z,4.73
2023-03-16T12:26:14.944Z,4.67
2023-03-16T12:29:31.032Z,4.80
2023-03-16T12:33:02.042Z,4.63
2023-03-16T12:36:15.054Z,4.50
2023-03-16T12:39:19.506Z,4.60
2023-03-16T12:43:03.043Z,4.57
2023-03-16T12:46:11.668Z,3.80
2023-03-16T12:49:14.181Z,3.90
2023-03-16T12:52:15.754Z,4.20
2023-03-16T12:55:20.760Z,4.17
2023-03-16T12:58:23.960Z,3.87
2023-03-16T13:01:28.813Z,3.70
2023-03-16T13:04:34.851Z,4.10
2023-03-16T13:07:39.148Z,3.97
2023-03-16T13:10:40.655Z,3.77
2023-03-16T13:14:06.293Z,4.07
2023-03-16T13:17:17.211Z,3.27
2023-03-16T13:20:47.732Z,3.30
2023-03-16T13:24:01.311Z,3.20
2023-03-16T13:27:06.442Z,3.63
2023-03-16T13:30:22.366Z,3.50
2023-03-16T13:33:27.084Z,3.50
2023-03-16T13:36:30.570Z,3.40
2023-03-16T13:39:32.466Z,3.43
2023-03-16T13:42:34.027Z,3.53
2023-03-16T13:45:38.357Z,3.30
2023-03-16T13:48:41.617Z,3.30
2023-03-16T13:51:43.667Z,3.30
2023-03-16T13:54:45.172Z,3.40
2023-03-16T13:57:49.033Z,3.03
2023-03-16T14:00:55.614Z,3.27
2023-03-16T14:04:08.605Z,3.10
2023-03-16T14:07:17.346Z,2.83
2023-03-16T14:10:20.589Z,2.77
2023-03-16T14:13:23.993Z,2.80
2023-03-16T14:16:28.354Z,2.97
2023-03-16T14:19:35.989Z,2.63
2023-03-16T14:22:38.214Z,2.50
2023-03-16T14:25:39.702Z,2.70
2023-03-16T14:28:42.464Z,2.70
2023-03-16T14:31:44.572Z,2.23
2023-03-16T14:34:49.947Z,2.07
2023-03-16T14:37:51.940Z,2.13
2023-03-16T14:40:56.540Z,1.90
2023-03-16T14:44:00.706Z,2.27
2023-03-16T14:47:04.923Z,2.53
2023-03-16T14:50:13.862Z,2.60
2023-03-16T14:53:15.484Z,2.53
2023-03-16T14:56:17.440Z,2.00
2023-03-16T14:59:19.642Z,1.90
2023-03-16T15:02:27.019Z,1.80
2023-03-16T15:05:40.267Z,2.00
2023-03-16T15:08:45.979Z,2.30
2023-03-16T15:11:47.379Z,2.10
2023-03-16T15:15:07.474Z,2.30
2023-03-16T15:18:09.096Z,2.27
2023-03-16T15:21:12.843Z,2.13
2023-03-16T15:24:14.298Z,2.20
2023-03-16T15:27:20.966Z,1.90
2023-03-16T15:30:28.713Z,1.93
2023-03-16T15:33:31.051Z,1.90
2023-03-16T15:36:32.541Z,2.00
2023-03-16T15:39:34.142Z,2.03
2023-03-16T15:42:35.519Z,2.00
2023-03-16T15:45:37.302Z,1.97
2023-03-16T15:48:39.367Z,2.10
2023-03-16T15:51:41.174Z,1.90
2023-03-16T15:54:42.566Z,2.13
2023-03-16T15:57:45.411Z,2.47
2023-03-16T16:00:48.740Z,2.30
2023-03-16T16:03:51.563Z,2.10
2023-03-16T16:06:55.168Z,2.30
2023-03-16T16:09:56.741Z,2.13
2023-03-16T16:12:59.015Z,2.20
2023-03-16T16:16:00.521Z,2.40
2023-03-16T16:19:01.995Z,2.27
2023-03-16T16:22:04.233Z,2.30
2023-03-16T16:25:05.785Z,2.13
2023-03-16T16:28:16.481Z,2.73
2023-03-16T16:31:19.610Z,2.33
2023-03-16T16:34:24.570Z,2.30
2023-03-16T16:37:26.322Z,2.03
2023-03-16T16:40:37.267Z,2.07
2023-03-16T16:43:46.550Z,2.20
2023-03-16T16:46:50.260Z,2.00
2023-03-16T16:49:52.578Z,1.83
2023-03-16T16:52:55.178Z,2.03
2023-03-16T16:55:57.374Z,1.70
2023-03-16T16:59:07.074Z,2.03
2023-03-16T17:02:42.026Z,1.67
2023-03-16T17:05:43.537Z,1.93
2023-03-16T17:08:49.953Z,2.03
2023-03-16T17:11:52.232Z,2.20
2023-03-16T17:14:53.635Z,1.73
2023-03-16T17:18:00.662Z,1.80
2023-03-16T17:21:02.383Z,2.00
2023-03-16T17:24:04.596Z,2.00
2023-03-16T17:27:05.984Z,2.27
2023-03-16T17:30:27.633Z,2.40
2023-03-16T17:33:29.058Z,2.30
2023-03-16T17:36:30.548Z,2.40
2023-03-16T17:39:34.316Z,2.77
2023-03-16T17:42:35.981Z,2.77
2023-03-16T17:45:37.476Z,2.90
2023-03-16T17:48:38.911Z,2.53
2023-03-16T17:51:40.861Z,2.70
2023-03-16T17:54:42.738Z,2.60
2023-03-16T17:57:44.200Z,2.60
2023-03-16T18:00:47.104Z,2.97
2023-03-16T18:03:48.562Z,3.07
2023-03-16T18:06:51.197Z,3.40
2023-03-16T18:09:53.004Z,3.20
2023-03-16T18:13:01.747Z,3.80
2023-03-16T18:16:05.701Z,3.20
2023-03-16T18:19:21.356Z,2.87
2023-03-16T18:22:24.608Z,3.27
2023-03-16T18:25:40.798Z,2.97
2023-03-16T18:28:42.267Z,2.83
2023-03-16T18:31:45.753Z,2.40
2023-03-16T18:34:47.466Z,2.30
2023-03-16T18:37:49.149Z,2.73
2023-03-16T18:40:50.704Z,3.00
2023-03-16T18:43:55.004Z,4.17
2023-03-16T18:47:02.886Z,4.23
2023-03-16T18:50:04.807Z,2.90
2023-03-16T18:53:08.127Z,2.40
2023-03-16T18:56:28.917Z,2.70
2023-03-16T18:59:31.821Z,3.00
2023-03-16T19:02:38.919Z,3.10
2023-03-16T19:05:40.738Z,3.90
2023-03-16T19:08:42.118Z,4.03
2023-03-16T19:11:44.882Z,3.47
2023-03-16T19:14:46.927Z,2.80
2023-03-16T19:17:48.966Z,2.73
2023-03-16T19:20:51.001Z,2.73
2023-03-16T19:24:02.934Z,2.70
2023-03-16T19:27:16.440Z,3.00
2023-03-16T19:30:30.256Z,2.97
2023-03-16T19:33:31.831Z,3.87
2023-03-16T19:36:33.832Z,3.40
2023-03-16T19:39:35.365Z,3.63
2023-03-16T19:42:37.086Z,3.57
2023-03-16T19:45:39.257Z,4.77
2023-03-16T19:48:42.306Z,4.00
2023-03-16T19:51:43.766Z,3.50
2023-03-16T19:54:45.270Z,3.43
2023-03-16T19:57:49.141Z,3.50
2023-03-16T20:00:50.996Z,3.53
2023-03-16T20:03:53.260Z,3.47
2023-03-16T20:06:54.934Z,4.30
2023-03-16T20:09:57.257Z,3.93
2023-03-16T20:13:01.461Z,4.10
2023-03-16T20:16:03.531Z,4.57
2023-03-16T20:19:13.408Z,3.73
2023-03-16T20:22:20.567Z,4.60
2023-03-16T20:25:24.637Z,4.03
2023-03-16T20:28:33.600Z,4.80
2023-03-16T20:31:36.556Z,3.90
2023-03-16T20:34:38.037Z,4.73
2023-03-16T20:37:39.439Z,4.23
2023-03-16T20:40:46.409Z,4.37
2023-03-16T20:43:48.332Z,4.10
2023-03-16T20:46:49.721Z,4.53
2023-03-16T20:49:52.381Z,5.20
2023-03-16T20:52:54.669Z,4.73
2023-03-16T20:55:56.606Z,5.30
2023-03-16T20:58:58.949Z,7.87
2023-03-16T21:02:01.563Z,5.00
2023-03-16T21:05:06.640Z,4.97
2023-03-16T21:08:08.498Z,4.30
2023-03-16T21:11:19.671Z,4.77
2023-03-16T21:14:23.760Z,4.10
2023-03-16T21:17:30.716Z,4.40
2023-03-16T21:20:33.764Z,4.70
2023-03-16T21:23:35.473Z,4.67
2023-03-16T21:26:37.403Z,4.43
2023-03-16T21:29:38.835Z,4.63
2023-03-16T21:32:40.235Z,4.63
2023-03-16T21:35:41.819Z,4.60
2023-03-16T21:38:44.601Z,4.70
2023-03-16T21:41:47.423Z,4.93
2023-03-16T21:44:48.807Z,5.17
2023-03-16T21:47:50.262Z,5.73
2023-03-16T21:50:53.649Z,5.27
2023-03-16T21:53:55.118Z,4.40
2023-03-16T21:56:56.975Z,4.43
2023-03-16T21:59:58.379Z,4.30
2023-03-16T22:03:00.780Z,4.33
2023-03-16T22:06:02.328Z,4.73
2023-03-16T22:09:04.143Z,4.23
2023-03-16T22:12:09.272Z,4.00
2023-03-16T22:15:10.831Z,4.30
2023-03-16T22:18:28.069Z,4.40
2023-03-16T22:21:40.870Z,4.40
2023-03-16T22:24:42.363Z,4.40
2023-03-16T22:27:43.944Z,4.30
2023-03-16T22:30:45.816Z,4.13
2023-03-16T22:33:48.583Z,4.67
2023-03-16T22:36:50.181Z,4.47
2023-03-16T22:39:52.818Z,4.30
2023-03-16T22:42:56.273Z,3.97
2023-03-16T22:45:58.001Z,4.43
2023-03-16T22:48:59.445Z,4.10
2023-03-16T22:52:01.849Z,4.43
2023-03-16T22:55:05.572Z,4.03
2023-03-16T22:58:31.831Z,4.17
2023-03-16T23:01:37.452Z,4.00
2023-03-16T23:04:38.947Z,4.33
2023-03-16T23:07:40.446Z,4.57
2023-03-16T23:10:42.164Z,4.20
2023-03-16T23:13:43.950Z,4.37
2023-03-16T23:16:46.684Z,4.70
2023-03-16T23:19:48.562Z,4.10
2023-03-16T23:22:50.113Z,4.07
2023-03-16T23:25:51.704Z,4.10
2023-03-16T23:28:55.536Z,4.50
2023-03-16T23:31:57.638Z,4.67
2023-03-16T23:34:59.130Z,4.60
2023-03-16T23:38:00.562Z,4.10
2023-03-16T23:41:02.009Z,4.30
2023-03-16T23:44:06.549Z,4.43
2023-03-16T23:47:10.759Z,4.13
2023-03-16T23:50:14.209Z,4.47
2023-03-16T23:53:18.221Z,4.20
2023-03-16T23:56:20.090Z,3.97
2023-03-16T23:59:23.332Z,4.33
